Penarth, United Kingdom
Current Conditions -  °F | °C
As of 8:20 AM on Thursday 18 Dec 2014 (Local Time) from EGFF Reporting Station
Drizzle Drizzle  
Wind Chill: 52°   Ceiling: 300
Heat Index: 52°   Visibility: 2.3mi
Dew Point: 52°   Wind: 21mph
Humidity: 100%   Direction: 260°W
Pressure: 29.85"   Gusts: NA
Location:  51.44°N, 3.18°W
Report Text: EGFF 180820Z 26018KT 3800 DZ BR SCT002 BKN003 11/11 Q1011 RERA
Loading
Personal Weather Stations






























Interactive Weather Map New forecast layout! Learn more

10-Day Weather Forecast

Advertisements
Track Severe Weather on mobile